createdAt,value
2018-05-23T00:06:01.470Z,1018.3
2018-05-23T00:22:01.565Z,1018.31
2018-05-23T00:27:01.523Z,1018.31
2018-05-23T00:37:01.456Z,1018.3
2018-05-23T00:42:01.406Z,1018.41
2018-05-23T00:57:01.430Z,1018.43
2018-05-23T01:02:01.405Z,1018.52
2018-05-23T01:17:01.436Z,1018.73
2018-05-23T01:22:01.411Z,1018.83
2018-05-23T01:32:01.461Z,1018.87
2018-05-23T01:37:01.476Z,1018.87
2018-05-23T01:47:01.419Z,1018.91
2018-05-23T02:02:01.368Z,1019.17
2018-05-23T02:17:01.521Z,1019.15
2018-05-23T02:27:01.379Z,1019.25
2018-05-23T02:37:01.345Z,1019.35
2018-05-23T02:47:01.732Z,1019.52
2018-05-23T03:02:01.395Z,1019.61
2018-05-23T03:07:01.390Z,1019.61
2018-05-23T03:22:01.606Z,1019.78
2018-05-23T03:37:01.327Z,1019.81
2018-05-23T03:47:01.369Z,1019.96
2018-05-23T03:52:01.523Z,1019.99
2018-05-23T03:57:01.393Z,1019.99
2018-05-23T04:02:01.475Z,1020.04
2018-05-23T04:07:01.427Z,1020.04
2018-05-23T04:12:01.385Z,1020.16
2018-05-23T04:17:01.373Z,1020.16
2018-05-23T04:23:01.368Z,1020.21
2018-05-23T04:28:01.393Z,1020.21
2018-05-23T04:33:01.449Z,1020.27
2018-05-23T04:38:01.423Z,1020.27
2018-05-23T04:43:01.466Z,1020.28
2018-05-23T04:48:01.427Z,1020.28
2018-05-23T04:53:01.440Z,1020.46
2018-05-23T04:58:01.437Z,1020.46
2018-05-23T05:03:01.399Z,1020.52
2018-05-23T05:08:01.297Z,1020.52
2018-05-23T05:13:01.432Z,1020.66
2018-05-23T05:18:01.448Z,1020.66
2018-05-23T05:23:01.435Z,1020.63
2018-05-23T05:28:01.526Z,1020.63
2018-05-23T05:33:01.443Z,1020.8
2018-05-23T05:38:01.491Z,1020.8
2018-05-23T05:43:01.500Z,1020.83
2018-05-23T05:48:01.435Z,1020.83
2018-05-23T05:53:01.526Z,1020.92
2018-05-23T05:58:01.510Z,1020.92
2018-05-23T06:03:01.446Z,1020.99
2018-05-23T06:09:01.547Z,1020.99
2018-05-23T06:14:01.568Z,1021.02
2018-05-23T06:19:01.404Z,1021.02
2018-05-23T06:24:01.539Z,1021.2
2018-05-23T06:34:01.402Z,1021.35
2018-05-23T06:49:01.257Z,1021.43
2018-05-23T06:54:01.550Z,1021.49
2018-05-23T06:59:01.661Z,1021.49
2018-05-23T07:04:01.479Z,1021.55
2018-05-23T07:09:01.439Z,1021.55
2018-05-23T07:14:01.575Z,1021.51
2018-05-23T07:19:01.434Z,1021.51
2018-05-23T07:24:01.940Z,1021.62
2018-05-23T07:29:01.397Z,1021.62
2018-05-23T07:34:01.875Z,1021.82
2018-05-23T07:39:01.398Z,1021.82
2018-05-23T07:44:01.468Z,1021.78
2018-05-23T07:49:01.575Z,1021.78
2018-05-23T07:54:01.616Z,1021.8
2018-05-23T07:59:01.462Z,1021.8
2018-05-23T08:04:01.491Z,1021.8
2018-05-23T08:09:01.458Z,1021.8
2018-05-23T08:14:01.456Z,1021.91
2018-05-23T08:19:01.521Z,1021.91
2018-05-23T08:24:01.570Z,1022.01
2018-05-23T08:29:01.449Z,1022.01
2018-05-23T08:34:01.489Z,1022.16
2018-05-23T08:39:01.444Z,1022.16
2018-05-23T08:44:01.463Z,1022.1
2018-05-23T08:54:01.527Z,1022.23
2018-05-23T08:59:01.439Z,1022.23
2018-05-23T09:04:01.503Z,1022.25
2018-05-23T09:09:01.492Z,1022.25
2018-05-23T09:15:01.639Z,1022.26
2018-05-23T09:20:01.475Z,1022.26
2018-05-23T09:25:01.452Z,1022.29
2018-05-23T09:30:01.621Z,1022.29
2018-05-23T09:35:01.527Z,1022.31
2018-05-23T09:45:01.896Z,1022.36
2018-05-23T09:50:01.421Z,1022.36
2018-05-23T09:55:01.628Z,1022.39
2018-05-23T10:00:01.553Z,1022.39
2018-05-23T10:05:01.538Z,1022.43
2018-05-23T10:10:01.433Z,1022.43
2018-05-23T10:15:01.670Z,1022.52
2018-05-23T10:20:06.379Z,1022.52
2018-05-23T10:25:01.456Z,1022.55
2018-05-23T10:30:01.589Z,1022.55
2018-05-23T10:35:01.484Z,1022.66
2018-05-23T10:45:01.597Z,1022.66
2018-05-23T11:00:01.709Z,1022.67
2018-05-23T11:05:01.469Z,1022.71
2018-05-23T11:10:01.730Z,1022.71
2018-05-23T11:15:02.034Z,1022.74
2018-05-23T11:21:01.366Z,1022.74
2018-05-23T11:26:01.515Z,1022.75
2018-05-23T11:31:01.390Z,1022.75
2018-05-23T11:46:01.247Z,1022.83
2018-05-23T11:51:01.398Z,1022.83
2018-05-23T12:01:01.264Z,1022.86
2018-05-23T12:16:01.265Z,1022.81
2018-05-23T12:21:01.437Z,1022.81
2018-05-23T12:26:01.451Z,1022.72
2018-05-23T12:41:01.647Z,1022.79
2018-05-23T12:46:01.418Z,1022.84
2018-05-23T12:51:01.458Z,1022.84
2018-05-23T12:56:01.672Z,1022.87
2018-05-23T13:01:01.507Z,1022.87
2018-05-23T13:11:01.613Z,1022.81
2018-05-23T13:26:01.994Z,1022.85
2018-05-23T13:31:01.364Z,1022.85
2018-05-23T13:36:01.494Z,1022.73
2018-05-23T13:51:01.416Z,1022.78
2018-05-23T14:01:01.259Z,1022.72
2018-05-23T14:06:16.272Z,1022.72
2018-05-23T14:16:16.243Z,1022.72
2018-05-23T14:22:16.271Z,1022.6
2018-05-23T14:37:01.519Z,1022.58
2018-05-23T14:47:01.298Z,1022.57
2018-05-23T15:02:01.275Z,1022.57
2018-05-23T15:18:01.246Z,1022.53
2018-05-23T15:33:01.259Z,1022.61
2018-05-23T15:48:01.279Z,1022.57
2018-05-23T15:53:01.440Z,1022.51
2018-05-23T15:58:01.494Z,1022.51
2018-05-23T16:03:01.726Z,1022.5
2018-05-23T16:08:01.436Z,1022.5
2018-05-23T16:13:16.320Z,1022.56
2018-05-23T16:18:01.358Z,1022.56
2018-05-23T16:23:01.413Z,1022.65
2018-05-23T16:29:01.255Z,1022.65
2018-05-23T16:34:01.375Z,1022.58
2018-05-23T16:39:01.411Z,1022.58
2018-05-23T16:44:01.385Z,1022.43
2018-05-23T16:54:01.441Z,1022.52
2018-05-23T17:04:01.357Z,1022.42
2018-05-23T17:09:01.380Z,1022.42
2018-05-23T17:19:01.410Z,1022.43
2018-05-23T17:29:01.365Z,1022.47
2018-05-23T17:39:01.385Z,1022.49
2018-05-23T17:54:01.401Z,1022.48
2018-05-23T18:04:01.393Z,1022.56
2018-05-23T18:09:01.380Z,1022.56
2018-05-23T18:14:01.371Z,1022.55
2018-05-23T18:19:01.392Z,1022.55
2018-05-23T18:24:01.434Z,1022.64
2018-05-23T18:29:01.398Z,1022.64
2018-05-23T18:34:01.392Z,1022.67
2018-05-23T18:39:01.395Z,1022.67
2018-05-23T18:44:01.506Z,1022.75
2018-05-23T18:49:01.391Z,1022.75
2018-05-23T18:54:01.385Z,1022.79
2018-05-23T18:59:01.484Z,1022.79
2018-05-23T19:04:01.403Z,1022.83
2018-05-23T19:09:01.565Z,1022.83
2018-05-23T19:14:01.443Z,1022.99
2018-05-23T19:19:01.448Z,1022.99
2018-05-23T19:24:01.425Z,1023.06
2018-05-23T19:29:01.455Z,1023.06
2018-05-23T19:34:01.444Z,1023.1500000000001
2018-05-23T19:39:01.499Z,1023.1500000000001
2018-05-23T19:44:01.428Z,1023.1800000000001
2018-05-23T19:50:01.433Z,1023.1800000000001
2018-05-23T19:55:01.396Z,1023.3599999999999
2018-05-23T20:00:01.421Z,1023.3599999999999
2018-05-23T20:05:01.451Z,1023.54
2018-05-23T20:10:01.425Z,1023.54
2018-05-23T20:15:01.452Z,1023.51
2018-05-23T20:20:01.450Z,1023.51
2018-05-23T20:25:01.420Z,1023.5999999999999
2018-05-23T20:30:01.461Z,1023.5999999999999
2018-05-23T20:35:01.459Z,1023.75
2018-05-23T20:45:01.429Z,1023.75
2018-05-23T20:55:01.390Z,1023.8399999999999
2018-05-23T21:00:01.461Z,1023.8399999999999
2018-05-23T21:05:06.860Z,1023.8499999999999
2018-05-23T21:15:01.546Z,1023.8499999999999
2018-05-23T21:25:01.484Z,1023.9100000000001
2018-05-23T21:30:01.459Z,1023.9100000000001
2018-05-23T21:35:01.457Z,1024.0
2018-05-23T21:40:01.452Z,1024.0
2018-05-23T21:45:01.507Z,1024.07
2018-05-23T21:50:01.453Z,1024.07
2018-05-23T21:55:01.460Z,1024.11
2018-05-23T22:00:06.589Z,1024.11
2018-05-23T22:05:01.505Z,1024.18
2018-05-23T22:10:01.469Z,1024.18
2018-05-23T22:15:01.607Z,1024.11
2018-05-23T22:20:01.413Z,1024.11
2018-05-23T22:25:01.521Z,1024.15
2018-05-23T22:30:01.388Z,1024.15
2018-05-23T22:35:01.514Z,1024.17
2018-05-23T22:45:01.500Z,1024.22
2018-05-23T22:55:01.494Z,1024.2
2018-05-23T23:00:01.437Z,1024.2
2018-05-23T23:05:01.531Z,1024.38
2018-05-23T23:10:01.527Z,1024.38
2018-05-23T23:15:01.487Z,1024.39
2018-05-23T23:20:01.381Z,1024.39
2018-05-23T23:30:06.515Z,1024.42
2018-05-23T23:35:01.497Z,1024.44
2018-05-23T23:45:01.545Z,1024.27
2018-05-23T23:55:01.640Z,1024.42
